Time;durP1;ratioP1;P1;durP2;ratioP2;P2;SDS_P1;SDS_P2;PMS_P1;PMS_P2;Temp;Humidity;BMP_temperature;BMP_pressure;BME280_temperature;BME280_humidity;BME280_pressure;Samples;Min_cycle;Max_cycle;Signal;HPM_P1;HPM_P2
2022/04/20 00:00:43;;;;;;;10.75;3.63;;;;;;;;;;5041459;28;20057;-75
2022/04/20 00:03:11;;;;;;;8.63;3.38;;;;;;;;;;5045732;28;20064;-75
2022/04/20 00:05:39;;;;;;;9.10;3.10;;;;;;;;;;5057022;28;20053;-76
2022/04/20 00:08:07;;;;;;;8.05;3.67;;;;;;;;;;5039504;28;20048;-75
2022/04/20 00:10:34;;;;;;;11.35;3.47;;;;;;;;;;5046706;28;20056;-75
2022/04/20 00:13:01;;;;;;;9.93;3.72;;;;;;;;;;5044315;28;20051;-75
2022/04/20 00:15:29;;;;;;;9.40;3.83;;;;;;;;;;5040507;28;20057;-75
2022/04/20 00:17:56;;;;;;;6.82;3.10;;;;;;;;;;5039222;28;20050;-75
2022/04/20 00:20:23;;;;;;;8.18;2.88;;;;;;;;;;5044119;28;20052;-75
2022/04/20 00:22:52;;;;;;;10.05;3.15;;;;;;;;;;5043294;28;20484;-75
2022/04/20 00:25:19;;;;;;;5.00;2.83;;;;;;;;;;5037652;28;20535;-75
2022/04/20 00:27:46;;;;;;;7.47;2.90;;;;;;;;;;5049749;28;20056;-75
2022/04/20 00:30:14;;;;;;;5.65;2.83;;;;;;;;;;5042344;28;20070;-75
2022/04/20 00:32:41;;;;;;;7.03;2.95;;;;;;;;;;5042307;28;20067;-75
2022/04/20 00:35:09;;;;;;;3.72;2.40;;;;;;;;;;5048591;28;20064;-75
2022/04/20 00:37:37;;;;;;;6.30;2.60;;;;;;;;;;5046059;28;20460;-75
2022/04/20 00:40:06;;;;;;;6.00;2.60;;;;;;;;;;5044729;28;20048;-75
2022/04/20 00:42:33;;;;;;;6.25;2.80;;;;;;;;;;5043278;28;20403;-75
2022/04/20 00:45:01;;;;;;;11.15;3.20;;;;;;;;;;5040994;28;20050;-75
2022/04/20 00:47:29;;;;;;;8.35;2.80;;;;;;;;;;5046098;28;20523;-75
2022/04/20 00:49:58;;;;;;;6.45;3.15;;;;;;;;;;5042979;28;20049;-75
2022/04/20 00:52:25;;;;;;;7.05;2.67;;;;;;;;;;5041981;28;20076;-75
2022/04/20 00:54:52;;;;;;;5.50;2.58;;;;;;;;;;5049336;28;20045;-75
2022/04/20 00:57:21;;;;;;;5.25;2.70;;;;;;;;;;5045770;28;20065;-75
2022/04/20 00:59:50;;;;;;;9.85;2.70;;;;;;;;;;5045053;28;20499;-75
2022/04/20 01:02:17;;;;;;;7.40;3.15;;;;;;;;;;5047658;28;20476;-75
2022/04/20 01:04:44;;;;;;;4.80;2.65;;;;;;;;;;5036976;28;20057;-75
2022/04/20 01:07:12;;;;;;;8.02;2.75;;;;;;;;;;5045536;28;20057;-75
2022/04/20 01:09:40;;;;;;;6.85;2.90;;;;;;;;;;5046703;28;20136;-75
2022/04/20 01:12:08;;;;;;;4.70;2.60;;;;;;;;;;5041027;28;20052;-75
2022/04/20 01:14:36;;;;;;;4.10;2.67;;;;;;;;;;5042737;28;20053;-75
2022/04/20 01:17:04;;;;;;;6.93;2.92;;;;;;;;;;5042409;28;20500;-75
2022/04/20 01:19:34;;;;;;;5.47;2.88;;;;;;;;;;5044193;28;20133;-75
2022/04/20 01:22:03;;;;;;;5.88;2.85;;;;;;;;;;5047875;28;20056;-75
2022/04/20 01:24:30;;;;;;;4.30;2.70;;;;;;;;;;5039953;28;20045;-75
2022/04/20 01:26:58;;;;;;;4.20;2.50;;;;;;;;;;5044451;28;20060;-75
2022/04/20 01:29:26;;;;;;;6.55;2.85;;;;;;;;;;5047574;28;20121;-75
2022/04/20 01:31:54;;;;;;;9.57;3.20;;;;;;;;;;5040217;28;20136;-75
2022/04/20 01:34:21;;;;;;;5.45;3.28;;;;;;;;;;5043841;28;20507;-75
2022/04/20 01:36:48;;;;;;;4.82;2.78;;;;;;;;;;5036571;28;20380;-75
2022/04/20 01:39:17;;;;;;;6.65;2.80;;;;;;;;;;5040419;28;20048;-75
2022/04/20 01:41:44;;;;;;;6.70;2.92;;;;;;;;;;5040302;28;20053;-75
2022/04/20 01:44:11;;;;;;;4.18;3.10;;;;;;;;;;5039219;28;20053;-75
2022/04/20 01:46:39;;;;;;;4.97;2.95;;;;;;;;;;5044652;28;20114;-75
2022/04/20 01:49:06;;;;;;;5.68;2.72;;;;;;;;;;5044017;28;20048;-75
2022/04/20 01:51:50;;;;;;;4.82;2.67;;;;;;;;;;5042456;28;20057;-75
2022/04/20 01:54:19;;;;;;;6.68;2.80;;;;;;;;;;5045843;28;20102;-75
2022/04/20 01:56:47;;;;;;;6.32;2.80;;;;;;;;;;5044754;28;20060;-75
2022/04/20 01:59:15;;;;;;;4.85;2.90;;;;;;;;;;5042996;28;20503;-75
2022/04/20 02:04:27;;;;;;;6.43;2.83;;;;;;;;;;5042048;28;20064;-75
2022/04/20 02:06:54;;;;;;;6.10;2.58;;;;;;;;;;5045887;28;20519;-75
2022/04/20 02:09:24;;;;;;;4.53;2.85;;;;;;;;;;5044950;28;20049;-75
2022/04/20 02:11:51;;;;;;;4.07;2.85;;;;;;;;;;5042528;28;20057;-75
2022/04/20 02:14:18;;;;;;;4.15;2.92;;;;;;;;;;5050108;28;20051;-75
2022/04/20 02:16:45;;;;;;;4.07;2.63;;;;;;;;;;5041853;28;20053;-75
2022/04/20 02:19:13;;;;;;;7.30;2.70;;;;;;;;;;5035653;28;20047;-75
2022/04/20 02:21:40;;;;;;;5.60;3.25;;;;;;;;;;5040345;28;20053;-75
2022/04/20 02:24:07;;;;;;;7.15;3.15;;;;;;;;;;5040103;28;20053;-75
2022/04/20 02:26:36;;;;;;;4.65;3.03;;;;;;;;;;5043085;28;20048;-75
2022/04/20 02:29:03;;;;;;;5.18;2.85;;;;;;;;;;5040427;28;20045;-75
2022/04/20 02:31:30;;;;;;;4.93;2.80;;;;;;;;;;5038842;28;20496;-75
2022/04/20 02:33:58;;;;;;;6.80;3.20;;;;;;;;;;5041249;28;20056;-75
2022/04/20 02:36:25;;;;;;;4.18;2.97;;;;;;;;;;5043491;28;20053;-75
2022/04/20 02:38:53;;;;;;;4.70;2.78;;;;;;;;;;5043828;28;20395;-75
2022/04/20 02:41:20;;;;;;;6.93;2.90;;;;;;;;;;5038809;28;20052;-75
2022/04/20 02:43:49;;;;;;;5.07;3.17;;;;;;;;;;5042385;28;20060;-75
2022/04/20 02:46:17;;;;;;;6.30;3.08;;;;;;;;;;5040749;28;20053;-75
2022/04/20 02:48:44;;;;;;;6.57;2.90;;;;;;;;;;5047260;28;20056;-75
2022/04/20 02:51:11;;;;;;;4.68;3.17;;;;;;;;;;5042872;28;20056;-75
2022/04/20 02:53:39;;;;;;;4.53;3.30;;;;;;;;;;5041035;28;20064;-75
2022/04/20 02:56:06;;;;;;;7.28;3.22;;;;;;;;;;5045930;28;20052;-75
2022/04/20 02:58:34;;;;;;;4.22;2.90;;;;;;;;;;5041203;28;20041;-75
2022/04/20 03:01:03;;;;;;;5.82;3.20;;;;;;;;;;5041486;28;20147;-75
2022/04/20 03:03:30;;;;;;;5.15;2.97;;;;;;;;;;5040763;28;20059;-75
2022/04/20 03:05:57;;;;;;;5.57;3.10;;;;;;;;;;5043657;28;20065;-75
2022/04/20 03:08:25;;;;;;;6.55;3.03;;;;;;;;;;5045324;28;20056;-75
2022/04/20 03:10:52;;;;;;;4.38;3.00;;;;;;;;;;5043578;28;20064;-75
2022/04/20 03:13:19;;;;;;;5.85;2.90;;;;;;;;;;5046540;28;20077;-75
2022/04/20 03:15:47;;;;;;;4.90;3.40;;;;;;;;;;5043487;28;20062;-75
2022/04/20 03:18:16;;;;;;;5.45;3.03;;;;;;;;;;5040569;28;20044;-76
2022/04/20 03:20:43;;;;;;;5.13;3.40;;;;;;;;;;5042077;28;20048;-75
2022/04/20 03:23:12;;;;;;;6.25;3.47;;;;;;;;;;5043337;28;20774;-75
2022/04/20 03:25:41;;;;;;;6.88;3.03;;;;;;;;;;5046850;28;20076;-75
2022/04/20 03:28:08;;;;;;;7.20;3.30;;;;;;;;;;5041225;28;20219;-75
2022/04/20 03:30:38;;;;;;;5.28;3.55;;;;;;;;;;5039934;28;20048;-75
2022/04/20 03:33:06;;;;;;;7.13;3.05;;;;;;;;;;5043420;28;20092;-75
2022/04/20 03:35:34;;;;;;;7.20;3.47;;;;;;;;;;5029523;28;20061;-75
2022/04/20 03:38:02;;;;;;;4.88;2.83;;;;;;;;;;5037947;28;20053;-75
2022/04/20 03:40:29;;;;;;;5.05;2.92;;;;;;;;;;5040976;28;20041;-75
2022/04/20 03:42:56;;;;;;;7.03;3.13;;;;;;;;;;5036989;28;20049;-75
2022/04/20 03:45:23;;;;;;;4.75;3.50;;;;;;;;;;5043374;28;20079;-75
2022/04/20 03:47:51;;;;;;;6.00;3.20;;;;;;;;;;5044918;28;20721;-75
2022/04/20 03:50:18;;;;;;;5.47;3.42;;;;;;;;;;5041740;28;20089;-75
2022/04/20 03:52:47;;;;;;;6.80;3.22;;;;;;;;;;5036618;28;20107;-75
2022/04/20 03:55:14;;;;;;;9.18;3.58;;;;;;;;;;5036868;28;20061;-75
2022/04/20 03:57:41;;;;;;;5.65;3.30;;;;;;;;;;5037732;28;20138;-75
2022/04/20 04:00:09;;;;;;;5.55;3.13;;;;;;;;;;5042030;28;20053;-75
2022/04/20 04:02:36;;;;;;;7.80;3.08;;;;;;;;;;5043193;28;20588;-75
2022/04/20 04:05:04;;;;;;;11.10;3.28;;;;;;;;;;5042798;28;20060;-75
2022/04/20 04:07:31;;;;;;;7.78;3.90;;;;;;;;;;5034101;28;20045;-75
2022/04/20 04:10:00;;;;;;;9.55;3.65;;;;;;;;;;5037827;28;20056;-74
2022/04/20 04:12:27;;;;;;;6.05;3.70;;;;;;;;;;5037107;28;20494;-75
2022/04/20 04:14:54;;;;;;;5.38;3.70;;;;;;;;;;5041512;28;20053;-75
2022/04/20 04:17:22;;;;;;;6.75;3.50;;;;;;;;;;5043012;28;20068;-75
2022/04/20 04:19:49;;;;;;;6.35;3.45;;;;;;;;;;5040301;28;20050;-75
2022/04/20 04:22:16;;;;;;;5.95;3.80;;;;;;;;;;5045838;28;20061;-75
2022/04/20 04:24:44;;;;;;;6.03;3.92;;;;;;;;;;5038655;28;20052;-75
2022/04/20 04:27:12;;;;;;;5.03;3.60;;;;;;;;;;5040935;28;20049;-75
2022/04/20 04:29:40;;;;;;;6.78;3.45;;;;;;;;;;5046650;28;20049;-75
2022/04/20 04:32:07;;;;;;;6.20;3.53;;;;;;;;;;5037611;28;20052;-74
2022/04/20 04:34:35;;;;;;;7.65;3.90;;;;;;;;;;5043400;28;20071;-75
2022/04/20 04:37:02;;;;;;;6.60;3.63;;;;;;;;;;5042249;28;20557;-75
2022/04/20 04:39:29;;;;;;;3.60;3.03;;;;;;;;;;5039777;28;20048;-75
2022/04/20 04:42:02;;;;;;;5.90;3.35;;;;;;;;;;5039169;28;20056;-75
2022/04/20 04:44:32;;;;;;;10.20;3.75;;;;;;;;;;5043239;28;20102;-75
2022/04/20 04:49:44;;;;;;;6.43;3.53;;;;;;;;;;5035004;28;20055;-75
2022/04/20 04:52:12;;;;;;;7.32;4.03;;;;;;;;;;5046354;28;20056;-75
2022/04/20 04:54:40;;;;;;;4.97;3.63;;;;;;;;;;5045207;28;20102;-75
2022/04/20 04:57:08;;;;;;;9.18;4.32;;;;;;;;;;5040116;28;20156;-75
2022/04/20 04:59:37;;;;;;;5.38;3.42;;;;;;;;;;5045437;28;20123;-75
2022/04/20 05:02:05;;;;;;;6.45;3.78;;;;;;;;;;5022240;28;20046;-75
2022/04/20 05:04:32;;;;;;;5.03;3.55;;;;;;;;;;5040103;28;20155;-75
2022/04/20 05:07:00;;;;;;;11.00;4.05;;;;;;;;;;5038671;28;20060;-75
2022/04/20 05:09:27;;;;;;;9.77;3.92;;;;;;;;;;5039840;28;20675;-75
2022/04/20 05:11:54;;;;;;;4.97;3.22;;;;;;;;;;5039321;28;20049;-74
2022/04/20 05:14:21;;;;;;;6.53;3.47;;;;;;;;;;5039869;28;20086;-75
2022/04/20 05:16:50;;;;;;;5.63;3.70;;;;;;;;;;5040135;28;20114;-75
2022/04/20 05:19:17;;;;;;;8.75;3.83;;;;;;;;;;5042368;28;20136;-74
2022/04/20 05:21:45;;;;;;;5.55;3.80;;;;;;;;;;5040214;28;20500;-75
2022/04/20 05:24:12;;;;;;;9.60;3.80;;;;;;;;;;5042210;28;20048;-75
2022/04/20 05:26:40;;;;;;;5.05;3.78;;;;;;;;;;5037640;28;20072;-75
2022/04/20 05:29:07;;;;;;;6.00;3.60;;;;;;;;;;5043052;28;20064;-75
2022/04/20 05:31:35;;;;;;;6.00;3.22;;;;;;;;;;5040591;28;20060;-75
2022/04/20 05:34:03;;;;;;;6.45;3.20;;;;;;;;;;5039180;28;20429;-76
2022/04/20 05:41:39;;;;;;;6.07;3.40;;;;;;;;;;5041380;28;20491;-75
2022/04/20 05:42:04;;;;;;;5.63;3.72;;;;;;;;;;5035594;28;20052;-75
2022/04/20 05:44:31;;;;;;;7.07;3.75;;;;;;;;;;5038262;28;20048;-75
2022/04/20 05:46:58;;;;;;;6.68;3.60;;;;;;;;;;5039217;28;20129;-75
2022/04/20 05:49:27;;;;;;;7.43;3.90;;;;;;;;;;5040039;28;20049;-75
2022/04/20 05:51:54;;;;;;;6.70;3.45;;;;;;;;;;5040556;28;20056;-75
2022/04/20 05:54:23;;;;;;;7.68;3.35;;;;;;;;;;5035865;28;20056;-75
2022/04/20 05:56:51;;;;;;;4.90;3.53;;;;;;;;;;5042106;28;20061;-75
2022/04/20 05:59:18;;;;;;;5.45;3.70;;;;;;;;;;5046796;28;20147;-75
2022/04/20 06:01:45;;;;;;;6.47;3.92;;;;;;;;;;5040909;28;20526;-75
2022/04/20 06:04:12;;;;;;;6.45;3.70;;;;;;;;;;5041563;28;20048;-75
2022/04/20 06:06:42;;;;;;;6.30;3.60;;;;;;;;;;5037419;28;20102;-75
2022/04/20 06:09:09;;;;;;;6.88;3.67;;;;;;;;;;5033124;28;20938;-76
2022/04/20 06:11:36;;;;;;;6.00;3.80;;;;;;;;;;5031959;28;20060;-75
2022/04/20 06:14:04;;;;;;;6.85;4.70;;;;;;;;;;5040054;28;20495;-75
2022/04/20 06:16:31;;;;;;;9.18;3.60;;;;;;;;;;5039627;28;20123;-75
2022/04/20 06:18:58;;;;;;;5.35;3.80;;;;;;;;;;5044490;28;20049;-75
2022/04/20 06:21:26;;;;;;;5.25;3.90;;;;;;;;;;5042632;28;20159;-75
2022/04/20 06:23:55;;;;;;;7.03;4.05;;;;;;;;;;5041447;28;20110;-76
2022/04/20 06:26:22;;;;;;;6.57;3.70;;;;;;;;;;5044536;28;20053;-76
2022/04/20 06:28:49;;;;;;;10.18;3.55;;;;;;;;;;5045009;28;20053;-76
2022/04/20 06:31:16;;;;;;;5.95;3.70;;;;;;;;;;5041898;28;20087;-76
2022/04/20 06:33:44;;;;;;;6.45;3.55;;;;;;;;;;5038215;28;20427;-76
2022/04/20 06:36:11;;;;;;;6.75;3.72;;;;;;;;;;5039132;28;20048;-76
2022/04/20 06:38:38;;;;;;;14.93;3.90;;;;;;;;;;5038872;28;20171;-76
2022/04/20 06:41:07;;;;;;;5.85;3.63;;;;;;;;;;5042233;28;20113;-76
2022/04/20 06:43:35;;;;;;;5.78;3.60;;;;;;;;;;5036577;28;20072;-76
2022/04/20 06:46:02;;;;;;;7.47;3.80;;;;;;;;;;5047440;28;20514;-76
2022/04/20 06:48:30;;;;;;;7.22;3.60;;;;;;;;;;5043331;28;20067;-76
2022/04/20 06:50:57;;;;;;;9.77;3.80;;;;;;;;;;5051648;28;20582;-76
2022/04/20 06:59:10;;;;;;;7.68;3.53;;;;;;;;;;5049683;28;20454;-76
2022/04/20 07:01:37;;;;;;;5.47;3.47;;;;;;;;;;5051275;28;20079;-76
2022/04/20 07:04:05;;;;;;;6.00;3.10;;;;;;;;;;5052102;28;20057;-76
2022/04/20 07:06:32;;;;;;;6.30;3.90;;;;;;;;;;5049790;28;20433;-76
2022/04/20 07:09:00;;;;;;;5.93;3.53;;;;;;;;;;5051474;28;20052;-76
2022/04/20 07:11:29;;;;;;;7.45;3.40;;;;;;;;;;5052381;28;20057;-76
2022/04/20 07:13:56;;;;;;;5.40;3.15;;;;;;;;;;5052052;28;20055;-75
2022/04/20 07:16:23;;;;;;;5.40;3.38;;;;;;;;;;5052563;28;20071;-76
2022/04/20 07:18:51;;;;;;;5.20;3.50;;;;;;;;;;5057278;28;20045;-76
2022/04/20 07:21:18;;;;;;;6.20;3.10;;;;;;;;;;5052134;28;20041;-76
2022/04/20 07:23:45;;;;;;;6.85;2.90;;;;;;;;;;5052127;28;20139;-76
2022/04/20 07:26:13;;;;;;;5.43;2.92;;;;;;;;;;5058970;28;20072;-76
2022/04/20 07:28:41;;;;;;;4.95;3.20;;;;;;;;;;5050741;28;20056;-76
2022/04/20 07:31:09;;;;;;;5.93;2.97;;;;;;;;;;5046627;28;20044;-76
2022/04/20 07:33:36;;;;;;;4.68;3.00;;;;;;;;;;5051295;28;20396;-76
2022/04/20 07:36:03;;;;;;;5.22;2.85;;;;;;;;;;5046600;28;20164;-76
2022/04/20 07:38:31;;;;;;;5.35;2.95;;;;;;;;;;5049973;28;20072;-76
2022/04/20 07:40:58;;;;;;;6.50;3.13;;;;;;;;;;5054691;28;20041;-76
2022/04/20 07:43:25;;;;;;;4.72;2.83;;;;;;;;;;5053593;28;20056;-76
2022/04/20 07:45:54;;;;;;;4.40;3.08;;;;;;;;;;5054929;28;20067;-76
2022/04/20 07:48:21;;;;;;;5.50;2.90;;;;;;;;;;5050596;28;20049;-76
2022/04/20 07:50:49;;;;;;;7.13;2.65;;;;;;;;;;5048089;28;20053;-76
2022/04/20 07:53:16;;;;;;;6.25;3.10;;;;;;;;;;5055839;28;20052;-76
2022/04/20 07:55:46;;;;;;;7.38;2.78;;;;;;;;;;5052758;28;20143;-76
2022/04/20 07:58:14;;;;;;;5.97;2.90;;;;;;;;;;5054495;28;20096;-76
2022/04/20 08:00:41;;;;;;;8.52;3.20;;;;;;;;;;5047117;28;20492;-76
2022/04/20 08:03:11;;;;;;;4.40;2.97;;;;;;;;;;5045816;28;20111;-76
2022/04/20 08:05:38;;;;;;;5.50;3.13;;;;;;;;;;5045730;28;20063;-76
2022/04/20 08:08:06;;;;;;;6.07;3.00;;;;;;;;;;5045259;28;20068;-76
2022/04/20 08:10:33;;;;;;;4.72;2.70;;;;;;;;;;5048038;28;20041;-76
2022/04/20 08:14:09;;;;;;;5.20;2.38;;;;;;;;;;5050721;28;20201;-76
2022/04/20 08:15:48;;;;;;;5.38;2.28;;;;;;;;;;5053662;28;20045;-76
2022/04/20 08:18:16;;;;;;;5.05;2.10;;;;;;;;;;5050592;28;20081;-76
2022/04/20 08:20:44;;;;;;;4.60;2.20;;;;;;;;;;5047673;28;20053;-76
2022/04/20 08:23:11;;;;;;;4.78;2.10;;;;;;;;;;5047226;28;20071;-76
2022/04/20 08:25:39;;;;;;;2.83;2.00;;;;;;;;;;5052090;28;20055;-76
2022/04/20 08:28:07;;;;;;;7.75;2.25;;;;;;;;;;5056205;28;20047;-76
2022/04/20 08:30:34;;;;;;;5.65;2.42;;;;;;;;;;5050247;28;20067;-76
2022/04/20 08:33:01;;;;;;;5.78;2.00;;;;;;;;;;5062393;28;20049;-76
2022/04/20 08:35:30;;;;;;;6.82;2.40;;;;;;;;;;5051190;28;20057;-76
2022/04/20 08:37:57;;;;;;;5.30;2.33;;;;;;;;;;5047273;28;20565;-76
2022/04/20 08:40:25;;;;;;;4.50;2.10;;;;;;;;;;5052612;28;20123;-76
2022/04/20 08:42:53;;;;;;;4.97;2.05;;;;;;;;;;5042731;28;20053;-76
2022/04/20 08:45:21;;;;;;;4.40;2.10;;;;;;;;;;5052527;28;20053;-76
2022/04/20 08:47:50;;;;;;;4.63;2.35;;;;;;;;;;5056524;28;20052;-76
2022/04/20 08:50:18;;;;;;;2.50;1.80;;;;;;;;;;5055970;28;20041;-76
2022/04/20 08:52:50;;;;;;;6.55;1.95;;;;;;;;;;5053903;28;20049;-76
2022/04/20 08:55:18;;;;;;;3.07;1.97;;;;;;;;;;5053375;28;20045;-77
2022/04/20 08:57:46;;;;;;;4.22;1.95;;;;;;;;;;5054245;28;20065;-76
2022/04/20 09:00:19;;;;;;;7.40;2.22;;;;;;;;;;5049242;28;20041;-77
2022/04/20 09:02:47;;;;;;;6.28;2.22;;;;;;;;;;5049122;28;20068;-76
2022/04/20 09:05:14;;;;;;;5.93;2.08;;;;;;;;;;5050455;28;20557;-76
2022/04/20 09:07:42;;;;;;;6.00;2.22;;;;;;;;;;5045257;28;20045;-76
2022/04/20 09:10:11;;;;;;;5.00;2.10;;;;;;;;;;5051090;28;20053;-76
2022/04/20 09:12:42;;;;;;;3.72;1.70;;;;;;;;;;5050193;28;20041;-76
2022/04/20 09:15:10;;;;;;;3.97;1.80;;;;;;;;;;5052076;28;20721;-76
2022/04/20 09:17:41;;;;;;;5.18;1.80;;;;;;;;;;5052451;28;20095;-76
2022/04/20 09:20:09;;;;;;;3.53;1.63;;;;;;;;;;5049274;28;20041;-76
2022/04/20 09:22:37;;;;;;;3.28;1.50;;;;;;;;;;5054162;28;20087;-77
2022/04/20 09:25:06;;;;;;;4.30;1.77;;;;;;;;;;5048448;28;20853;-77
2022/04/20 09:27:36;;;;;;;5.90;1.75;;;;;;;;;;5056293;28;20443;-76
2022/04/20 09:30:04;;;;;;;4.30;1.77;;;;;;;;;;5050286;28;20525;-77
2022/04/20 09:32:32;;;;;;;4.10;1.48;;;;;;;;;;5051385;28;20132;-78
2022/04/20 09:35:00;;;;;;;7.10;1.33;;;;;;;;;;5049888;28;20060;-77
2022/04/20 09:37:27;;;;;;;2.75;1.50;;;;;;;;;;5052942;28;20061;-77
2022/04/20 09:39:57;;;;;;;5.63;1.52;;;;;;;;;;5043477;28;20060;-76
2022/04/20 09:42:24;;;;;;;4.30;1.40;;;;;;;;;;5049160;28;20060;-77
2022/04/20 09:44:57;;;;;;;2.38;1.45;;;;;;;;;;5046745;28;20131;-76
2022/04/20 09:50:10;;;;;;;2.42;1.20;;;;;;;;;;5055135;28;20135;-77
2022/04/20 09:52:38;;;;;;;4.53;1.10;;;;;;;;;;5051513;28;20049;-77
2022/04/20 09:55:06;;;;;;;2.17;1.23;;;;;;;;;;5049660;28;20137;-77
2022/04/20 09:57:36;;;;;;;1.65;1.10;;;;;;;;;;5049699;28;20225;-77
2022/04/20 10:00:08;;;;;;;2.85;1.50;;;;;;;;;;5048429;28;20049;-77
2022/04/20 10:02:38;;;;;;;2.28;1.23;;;;;;;;;;5041931;28;20057;-77
2022/04/20 10:05:06;;;;;;;3.80;1.33;;;;;;;;;;5047007;28;20060;-77
2022/04/20 10:07:34;;;;;;;2.75;1.30;;;;;;;;;;5047435;28;20561;-77
2022/04/20 10:10:01;;;;;;;2.10;1.30;;;;;;;;;;5049798;28;20416;-77
2022/04/20 10:12:31;;;;;;;2.30;1.30;;;;;;;;;;5046976;28;20053;-77
2022/04/20 10:17:47;;;;;;;2.58;1.30;;;;;;;;;;5042335;28;20799;-77
2022/04/20 10:20:15;;;;;;;2.35;1.20;;;;;;;;;;5046119;28;20049;-77
2022/04/20 10:22:42;;;;;;;3.17;1.45;;;;;;;;;;5047732;28;20107;-77
2022/04/20 10:25:12;;;;;;;4.22;1.50;;;;;;;;;;5041325;28;20068;-77
2022/04/20 10:27:45;;;;;;;3.58;1.35;;;;;;;;;;5046829;28;20089;-77
2022/04/20 10:30:12;;;;;;;;;;;;;;;;;;5043314;28;20057;-77
2022/04/20 10:32:45;;;;;;;2.40;1.35;;;;;;;;;;5040649;28;19921;-77
2022/04/20 10:35:15;;;;;;;2.20;1.30;;;;;;;;;;5044218;28;20055;-77
2022/04/20 10:37:43;;;;;;;6.63;1.42;;;;;;;;;;5041866;28;20164;-78
2022/04/20 10:40:16;;;;;;;3.33;1.40;;;;;;;;;;5028379;28;20048;-78
2022/04/20 10:42:44;;;;;;;2.67;1.23;;;;;;;;;;5045533;28;20052;-78
2022/04/20 10:45:12;;;;;;;2.40;1.00;;;;;;;;;;5039409;28;20132;-77
2022/04/20 10:47:41;;;;;;;5.20;1.10;;;;;;;;;;5041302;28;20049;-77
2022/04/20 10:50:15;;;;;;;1.90;1.10;;;;;;;;;;5039489;28;20083;-78
2022/04/20 10:52:44;;;;;;;;;;;;;;;;;;5049304;28;20048;-77
2022/04/20 10:55:12;;;;;;;3.13;1.38;;;;;;;;;;5045397;28;19982;-77
2022/04/20 10:57:40;;;;;;;3.85;1.38;;;;;;;;;;5043423;28;20111;-77
2022/04/20 11:00:27;;;;;;;2.85;1.38;;;;;;;;;;5039506;28;20451;-77
2022/04/20 11:02:54;;;;;;;1.55;1.08;;;;;;;;;;5040845;28;20059;-77
2022/04/20 11:05:24;;;;;;;2.38;1.30;;;;;;;;;;5039259;28;20045;-78
2022/04/20 11:08:05;;;;;;;1.88;0.98;;;;;;;;;;5037748;28;20385;-77
2022/04/20 11:10:32;;;;;;;3.13;1.15;;;;;;;;;;5037296;28;20870;-77
2022/04/20 11:19:03;;;;;;;2.72;1.38;;;;;;;;;;5044813;28;20049;-77
2022/04/20 11:21:31;;;;;;;1.77;1.20;;;;;;;;;;5041901;28;20099;-77
2022/04/20 11:24:01;;;;;;;4.15;1.30;;;;;;;;;;5042901;28;20067;-78
2022/04/20 11:26:29;;;;;;;3.30;1.42;;;;;;;;;;5041832;28;20080;-77
2022/04/20 11:28:57;;;;;;;2.55;1.17;;;;;;;;;;5044210;28;20061;-77
2022/04/20 11:31:24;;;;;;;1.70;0.90;;;;;;;;;;5042892;28;20053;-77
2022/04/20 11:33:53;;;;;;;1.60;1.10;;;;;;;;;;5042834;28;20476;-77
2022/04/20 11:36:21;;;;;;;2.65;1.13;;;;;;;;;;5043346;28;20056;-77
2022/04/20 11:38:51;;;;;;;6.40;1.45;;;;;;;;;;5041401;28;20108;-78
2022/04/20 11:41:18;;;;;;;1.83;1.20;;;;;;;;;;5048048;28;20095;-78
2022/04/20 11:43:49;;;;;;;4.07;1.00;;;;;;;;;;5031173;28;20052;-75
2022/04/20 11:46:17;;;;;;;6.60;1.13;;;;;;;;;;5046825;28;20076;-75
2022/04/20 11:48:54;;;;;;;2.03;1.20;;;;;;;;;;5039104;28;20061;-75
2022/04/20 11:51:27;;;;;;;2.03;1.15;;;;;;;;;;5049114;28;20396;-75
2022/04/20 11:53:55;;;;;;;9.68;1.40;;;;;;;;;;5046056;28;20052;-75
2022/04/20 11:56:36;;;;;;;5.65;1.23;;;;;;;;;;5051625;28;20499;-76
2022/04/20 11:59:05;;;;;;;1.60;1.20;;;;;;;;;;5051321;28;20568;-75
2022/04/20 12:01:33;;;;;;;2.78;1.60;;;;;;;;;;5048824;28;20228;-76
2022/04/20 12:04:04;;;;;;;3.15;1.92;;;;;;;;;;5048288;28;20114;-75
2022/04/20 12:06:32;;;;;;;3.28;2.10;;;;;;;;;;5049613;28;20059;-75
2022/04/20 12:09:00;;;;;;;3.40;2.00;;;;;;;;;;5047711;28;20049;-75
2022/04/20 12:11:28;;;;;;;4.60;2.03;;;;;;;;;;5045868;28;20419;-76
2022/04/20 12:13:55;;;;;;;4.70;2.50;;;;;;;;;;5047072;28;20704;-76
2022/04/20 12:16:24;;;;;;;4.47;2.10;;;;;;;;;;5042894;28;20086;-76
2022/04/20 12:18:52;;;;;;;4.70;1.63;;;;;;;;;;5040099;28;20060;-75
2022/04/20 12:21:40;;;;;;;4.05;2.00;;;;;;;;;;5036405;28;20056;-76
2022/04/20 12:24:10;;;;;;;6.13;2.00;;;;;;;;;;5041480;28;20636;-75
2022/04/20 12:26:42;;;;;;;4.88;2.30;;;;;;;;;;5042537;28;20092;-75
2022/04/20 12:29:11;;;;;;;6.32;2.20;;;;;;;;;;5044630;28;20496;-76
2022/04/20 12:31:43;;;;;;;7.13;2.05;;;;;;;;;;5044151;28;20496;-76
2022/04/20 12:34:11;;;;;;;2.67;1.90;;;;;;;;;;5043297;28;20087;-76
2022/04/20 12:36:52;;;;;;;4.50;1.88;;;;;;;;;;5040462;28;20049;-76
2022/04/20 12:39:31;;;;;;;5.53;2.20;;;;;;;;;;5041267;28;20103;-76
2022/04/20 12:41:59;;;;;;;5.38;1.90;;;;;;;;;;5044699;28;20045;-76
2022/04/20 12:44:46;;;;;;;5.53;2.00;;;;;;;;;;5039725;28;20568;-76
2022/04/20 12:47:36;;;;;;;5.22;2.13;;;;;;;;;;5038635;28;20057;-76
2022/04/20 12:50:20;;;;;;;6.53;2.10;;;;;;;;;;5038811;28;20045;-76
2022/04/20 12:52:54;;;;;;;4.65;2.35;;;;;;;;;;5041417;28;20053;-76
2022/04/20 12:55:23;;;;;;;3.75;2.25;;;;;;;;;;5043912;28;20524;-78
2022/04/20 13:03:37;;;;;;;5.00;2.20;;;;;;;;;;5039516;28;20775;-77
2022/04/20 13:06:06;;;;;;;6.07;2.13;;;;;;;;;;5042394;28;20060;-77
2022/04/20 13:08:33;;;;;;;3.88;2.30;;;;;;;;;;5037816;28;20670;-77
2022/04/20 13:11:02;;;;;;;9.50;2.70;;;;;;;;;;5042182;28;20045;-77
2022/04/20 13:13:29;;;;;;;6.43;2.55;;;;;;;;;;5042678;28;20041;-77
2022/04/20 13:15:56;;;;;;;9.55;2.50;;;;;;;;;;5038701;28;20064;-77
2022/04/20 13:18:24;;;;;;;6.88;2.53;;;;;;;;;;5042592;28;20547;-77
2022/04/20 13:20:52;;;;;;;4.65;2.72;;;;;;;;;;5038305;28;20049;-77
2022/04/20 13:23:20;;;;;;;6.97;2.95;;;;;;;;;;5041661;28;20155;-77
2022/04/20 13:28:33;;;;;;;9.68;2.90;;;;;;;;;;5041072;28;20055;-77
2022/04/20 13:31:01;;;;;;;7.10;2.40;;;;;;;;;;5038255;28;21772;-77
2022/04/20 13:33:29;;;;;;;5.60;2.80;;;;;;;;;;5041123;28;20063;-78
2022/04/20 13:35:56;;;;;;;8.25;2.63;;;;;;;;;;5036980;28;20463;-77
2022/04/20 13:38:23;;;;;;;4.00;2.45;;;;;;;;;;5041896;28;20491;-77
2022/04/20 13:40:51;;;;;;;9.93;2.85;;;;;;;;;;5039256;28;20103;-77
2022/04/20 13:43:18;;;;;;;4.97;2.58;;;;;;;;;;5038416;28;20444;-78
2022/04/20 13:45:47;;;;;;;9.82;2.35;;;;;;;;;;5038033;28;20056;-78
2022/04/20 13:48:14;;;;;;;5.40;2.28;;;;;;;;;;5041928;28;20052;-77
2022/04/20 13:50:41;;;;;;;4.45;2.10;;;;;;;;;;5036998;28;20524;-77
2022/04/20 13:53:09;;;;;;;48.67;4.25;;;;;;;;;;5042030;28;20703;-77
2022/04/20 13:55:36;;;;;;;3.08;2.22;;;;;;;;;;5039485;28;20041;-78
2022/04/20 13:58:04;;;;;;;5.75;2.05;;;;;;;;;;5041333;28;20577;-77
2022/04/20 14:00:32;;;;;;;10.55;2.60;;;;;;;;;;5034469;28;20055;-78
2022/04/20 14:03:00;;;;;;;19.45;2.78;;;;;;;;;;5043255;28;20064;-78
2022/04/20 14:05:28;;;;;;;8.63;2.40;;;;;;;;;;5039413;28;20523;-77
2022/04/20 14:07:56;;;;;;;7.78;2.53;;;;;;;;;;5037077;28;20561;-77
2022/04/20 14:10:24;;;;;;;20.05;2.40;;;;;;;;;;5043644;28;20142;-77
2022/04/20 14:12:51;;;;;;;6.38;1.85;;;;;;;;;;5038945;28;20514;-77
2022/04/20 14:15:18;;;;;;;8.43;2.10;;;;;;;;;;5038724;28;20052;-77
2022/04/20 14:17:46;;;;;;;9.73;2.08;;;;;;;;;;5036807;28;20500;-78
2022/04/20 14:20:15;;;;;;;8.80;2.05;;;;;;;;;;5043449;28;20045;-78
2022/04/20 14:22:42;;;;;;;12.10;2.13;;;;;;;;;;5043784;28;20124;-77
2022/04/20 14:33:28;;;;;;;20.50;2.58;;;;;;;;;;5044261;28;20067;-78
2022/04/20 14:35:57;;;;;;;4.80;2.10;;;;;;;;;;5043813;28;20140;-78
2022/04/20 14:38:24;;;;;;;4.40;2.08;;;;;;;;;;5040824;28;20052;-77
2022/04/20 14:40:52;;;;;;;6.55;2.30;;;;;;;;;;5044624;28;20503;-77
2022/04/20 14:43:22;;;;;;;2.80;2.30;;;;;;;;;;5041144;28;20488;-77
2022/04/20 14:45:49;;;;;;;18.65;2.92;;;;;;;;;;5037492;28;20075;-77
2022/04/20 14:48:17;;;;;;;5.82;2.30;;;;;;;;;;5055539;28;20056;-77
2022/04/20 14:50:47;;;;;;;7.70;2.40;;;;;;;;;;5042626;28;20053;-77
2022/04/20 14:53:15;;;;;;;7.95;3.03;;;;;;;;;;5038362;28;20041;-77
2022/04/20 14:55:43;;;;;;;13.80;3.28;;;;;;;;;;5038897;28;20053;-77
2022/04/20 14:58:10;;;;;;;7.28;3.10;;;;;;;;;;5036747;28;20061;-77
2022/04/20 15:00:39;;;;;;;16.85;3.60;;;;;;;;;;5039613;28;20063;-78
2022/04/20 15:03:07;;;;;;;8.40;3.70;;;;;;;;;;5036190;28;20053;-78
2022/04/20 15:05:35;;;;;;;7.43;3.60;;;;;;;;;;5034820;28;20056;-78
2022/04/20 15:08:02;;;;;;;4.93;2.97;;;;;;;;;;5031355;28;20155;-78
2022/04/20 15:10:32;;;;;;;7.65;2.90;;;;;;;;;;5031678;28;20067;-78
2022/04/20 15:12:59;;;;;;;5.85;2.72;;;;;;;;;;5032125;28;20045;-78
2022/04/20 15:15:27;;;;;;;37.22;4.18;;;;;;;;;;5038302;28;20057;-78
2022/04/20 15:17:55;;;;;;;34.95;3.75;;;;;;;;;;5032859;28;20157;-78
2022/04/20 15:20:22;;;;;;;9.27;3.17;;;;;;;;;;5042010;28;20080;-78
2022/04/20 15:22:49;;;;;;;6.95;2.50;;;;;;;;;;5035379;28;20053;-78
2022/04/20 15:25:16;;;;;;;6.00;2.30;;;;;;;;;;5041907;28;20068;-77
2022/04/20 15:27:45;;;;;;;3.97;2.42;;;;;;;;;;5034240;28;20107;-77
2022/04/20 15:30:13;;;;;;;9.20;2.55;;;;;;;;;;5034836;28;20055;-78
2022/04/20 15:32:40;;;;;;;7.03;2.72;;;;;;;;;;5029976;28;20037;-78